Time;durP1;ratioP1;P1;durP2;ratioP2;P2;SDS_P1;SDS_P2;PMS_P1;PMS_P2;Temp;Humidity;BMP_temperature;BMP_pressure;BME280_temperature;BME280_humidity;BME280_pressure;Samples;Min_cycle;Max_cycle;Signal;HPM_P1;HPM_P2
2022/02/16 00:00:14;;;;;;;1059.43;988.63;;;;;;;7.41;56.64;100274.25;691314;28;44983;-72
2022/02/16 00:00:37;;;;;;;1058.13;987.33;;;;;;;7.41;56.44;100274.25;689600;28;67431;-72
2022/02/16 00:00:58;;;;;;;1063.30;992.40;;;;;;;7.39;56.58;100271.72;691193;28;45057;-73
2022/02/16 00:01:20;;;;;;;1056.78;986.03;;;;;;;7.37;56.58;100264.84;691488;28;21196;-73
2022/02/16 00:01:41;;;;;;;1056.70;986.00;;;;;;;7.34;56.67;100259.81;692538;28;23404;-72
2022/02/16 00:02:04;;;;;;;1064.25;993.35;;;;;;;7.34;56.64;100265.19;693887;28;22471;-71
2022/02/16 00:02:25;;;;;;;1061.25;990.25;;;;;;;7.33;56.73;100269.69;693101;28;44365;-71
2022/02/16 00:02:46;;;;;;;1060.65;989.65;;;;;;;7.32;56.69;100267.19;688892;28;1469;-72
2022/02/16 00:03:08;;;;;;;1061.45;990.55;;;;;;;7.30;56.60;100259.28;688311;28;23447;-72
2022/02/16 00:03:29;;;;;;;1060.82;990.05;;;;;;;7.30;56.84;100267.34;688125;28;22372;-73
2022/02/16 00:03:51;;;;;;;1061.03;990.33;;;;;;;7.29;56.62;100254.94;687573;28;46247;-72
2022/02/16 00:04:12;;;;;;;1056.70;986.10;;;;;;;7.30;56.78;100269.19;688527;28;21549;-72
2022/02/16 00:04:33;;;;;;;1058.28;987.65;;;;;;;7.30;56.75;100261.16;688435;28;46266;-72
2022/02/16 00:04:55;;;;;;;1059.97;989.22;;;;;;;7.27;56.79;100256.94;693753;28;22391;-71
2022/02/16 00:05:18;;;;;;;1060.00;989.30;;;;;;;7.27;56.88;100265.00;693002;28;45220;-71
2022/02/16 00:05:40;;;;;;;1056.63;985.92;;;;;;;7.29;56.75;100262.13;692387;28;69423;-72
2022/02/16 00:06:03;;;;;;;1057.32;986.63;;;;;;;7.27;56.64;100253.41;691421;28;43994;-72
2022/02/16 00:06:24;;;;;;;1052.53;982.13;;;;;;;7.26;56.92;100273.22;691972;28;67216;-71
2022/02/16 00:06:45;;;;;;;1052.82;982.45;;;;;;;7.29;56.98;100272.88;693729;28;22193;-72
2022/02/16 00:07:06;;;;;;;1056.50;986.00;;;;;;;7.31;56.87;100269.03;693775;28;22337;-70
2022/02/16 00:07:28;;;;;;;1060.78;990.03;;;;;;;7.33;56.63;100264.31;694105;28;22379;-72
2022/02/16 00:07:49;;;;;;;1057.93;987.33;;;;;;;7.35;56.67;100258.78;692972;28;45231;-73
2022/02/16 00:08:12;;;;;;;1054.50;984.05;;;;;;;7.34;56.59;100259.81;693650;28;24363;-72
2022/02/16 00:08:37;;;;;;;1061.22;990.53;;;;;;;7.32;56.59;100261.81;692374;28;67460;-72
2022/02/16 00:08:58;;;;;;;1050.00;979.40;;;;;;;7.35;56.67;100256.09;689768;28;113584;-71
2022/02/16 00:09:19;;;;;;;1046.32;976.25;;;;;;;7.33;56.34;100256.25;693886;28;22383;-73
2022/02/16 00:09:43;;;;;;;1046.20;976.00;;;;;;;7.31;56.57;100269.03;691455;28;91987;-72
2022/02/16 00:10:06;;;;;;;1045.93;975.83;;;;;;;7.28;56.36;100247.06;693835;28;22248;-72
2022/02/16 00:10:30;;;;;;;1057.18;986.58;;;;;;;7.28;56.58;100257.78;692315;28;67400;-72
2022/02/16 00:10:51;;;;;;;1059.43;988.63;;;;;;;7.27;56.70;100265.00;688049;28;90398;-71
2022/02/16 00:11:14;;;;;;;1057.75;986.95;;;;;;;7.31;56.45;100257.47;690695;28;21392;-73
2022/02/16 00:11:40;;;;;;;1062.60;991.38;;;;;;;7.34;56.56;100268.69;689480;28;34241;-73
2022/02/16 00:12:01;;;;;;;1060.90;990.08;;;;;;;7.35;56.49;100253.41;687115;28;91200;-71
2022/02/16 00:12:23;;;;;;;1063.97;993.08;;;;;;;7.36;56.48;100258.63;689792;28;23322;-71
2022/02/16 00:12:47;;;;;;;1066.75;995.78;;;;;;;7.36;56.36;100258.63;690941;28;45209;-71
2022/02/16 00:13:08;;;;;;;1060.32;989.63;;;;;;;7.36;56.46;100258.63;691171;28;92272;-72
2022/02/16 00:13:30;;;;;;;1056.25;985.70;;;;;;;7.34;56.26;100265.19;692573;28;47181;-72
2022/02/16 00:13:52;;;;;;;1056.35;985.72;;;;;;;7.33;56.27;100263.50;692895;28;22362;-71
2022/02/16 00:14:13;;;;;;;1059.85;989.05;;;;;;;7.31;56.43;100247.53;692871;28;47447;-72
2022/02/16 00:14:34;;;;;;;1051.57;981.28;;;;;;;7.32;56.37;100259.13;693873;28;22310;-71
2022/02/16 00:14:55;;;;;;;1057.80;987.20;;;;;;;7.35;56.27;100253.41;693786;28;21551;-72
2022/02/16 00:15:20;;;;;;;1059.85;989.15;;;;;;;7.34;56.32;100249.06;693892;28;23482;-71
2022/02/16 00:15:42;;;;;;;1062.03;991.20;;;;;;;7.35;56.19;100261.47;689307;28;137953;-74
2022/02/16 00:16:08;;;;;;;1059.43;988.47;;;;;;;7.34;56.35;100255.28;693692;28;21528;-72
2022/02/16 00:16:31;;;;;;;1060.78;989.97;;;;;;;7.33;56.36;100247.38;689017;28;138916;-73
2022/02/16 00:16:53;;;;;;;1058.97;988.22;;;;;;;7.33;56.34;100266.19;690897;28;69071;-72
2022/02/16 00:17:14;;;;;;;1058.78;988.15;;;;;;;7.36;56.21;100263.16;693566;28;21530;-73
2022/02/16 00:17:36;;;;;;;1061.97;991.20;;;;;;;7.37;56.24;100260.31;694155;28;23457;-72
2022/02/16 00:17:58;;;;;;;1059.22;988.63;;;;;;;7.35;56.23;100256.09;692810;28;46411;-72
2022/02/16 00:18:20;;;;;;;1061.22;990.42;;;;;;;7.36;56.06;100272.06;687366;28;69405;-72
2022/02/16 00:18:41;;;;;;;1062.38;991.60;;;;;;;7.37;55.97;100257.63;687749;28;21319;-72
2022/02/16 00:19:03;;;;;;;1058.82;988.22;;;;;;;7.35;55.98;100259.66;688177;28;23945;-73
2022/02/16 00:19:24;;;;;;;1055.22;984.63;;;;;;;7.35;56.01;100266.84;684144;28;44370;-71
2022/02/16 00:19:45;;;;;;;1056.93;986.22;;;;;;;7.34;56.21;100251.75;685700;28;21394;-73
2022/02/16 00:20:08;;;;;;;1063.43;992.53;;;;;;;7.30;56.30;100251.22;685813;28;22386;-71
2022/02/16 00:20:31;;;;;;;1064.70;993.70;;;;;;;7.28;56.37;100245.19;686061;28;44309;-73
2022/02/16 00:20:54;;;;;;;1066.20;995.10;;;;;;;7.27;56.30;100256.09;686936;28;92531;-72
2022/02/16 00:21:15;;;;;;;1065.82;994.70;;;;;;;7.28;56.31;100250.56;688258;28;46338;-73
2022/02/16 00:21:36;;;;;;;1066.28;995.15;;;;;;;7.30;56.32;100261.97;690811;28;22422;-73
2022/02/16 00:21:59;;;;;;;1067.57;996.35;;;;;;;7.32;56.13;100246.56;689953;28;46361;-72
2022/02/16 00:22:20;;;;;;;1066.50;995.28;;;;;;;7.33;56.18;100247.38;690806;28;46725;-72
2022/02/16 00:22:41;;;;;;;1069.05;997.70;;;;;;;7.34;56.17;100244.53;689590;28;46394;-73
2022/02/16 00:23:03;;;;;;;1070.15;998.95;;;;;;;7.34;56.00;100238.31;689667;28;44517;-73
2022/02/16 00:23:26;;;;;;;1067.18;996.08;;;;;;;7.36;56.22;100247.03;690938;28;22365;-71
2022/02/16 00:23:47;;;;;;;1064.65;993.65;;;;;;;7.33;55.96;100239.31;689926;28;46261;-71
2022/02/16 00:24:08;;;;;;;1065.95;994.88;;;;;;;7.33;56.22;100256.25;690721;28;23390;-73
2022/02/16 00:24:30;;;;;;;1061.35;990.50;;;;;;;7.30;56.25;100242.34;691870;28;21297;-72
2022/02/16 00:24:52;;;;;;;1054.00;983.58;;;;;;;7.31;56.13;100260.16;691353;28;91899;-72
2022/02/16 00:25:13;;;;;;;1052.93;982.45;;;;;;;7.33;56.30;100244.69;693974;28;23548;-72
2022/02/16 00:25:34;;;;;;;1058.07;987.40;;;;;;;7.34;56.28;100246.38;694028;28;22163;-72
2022/02/16 00:25:59;;;;;;;1056.72;986.00;;;;;;;7.35;56.17;100248.03;693166;28;21508;-72
2022/02/16 00:26:20;;;;;;;1059.07;988.33;;;;;;;7.34;56.08;100239.16;689929;28;115059;-73
2022/02/16 00:26:41;;;;;;;1063.53;992.53;;;;;;;7.32;56.00;100235.81;693813;28;22386;-72
2022/02/16 00:27:03;;;;;;;1066.30;995.30;;;;;;;7.29;56.14;100232.59;693983;28;21499;-73
2022/02/16 00:27:25;;;;;;;1069.30;998.20;;;;;;;7.29;56.10;100248.72;690521;28;22387;-71
2022/02/16 00:27:46;;;;;;;1069.63;998.40;;;;;;;7.27;56.28;100243.50;690164;28;44380;-72
2022/02/16 00:28:07;;;;;;;1066.30;995.20;;;;;;;7.25;56.21;100237.47;690627;28;22399;-71
2022/02/16 00:28:29;;;;;;;1062.03;991.05;;;;;;;7.21;56.19;100236.97;690222;28;46986;-72
2022/02/16 00:28:51;;;;;;;1057.38;986.67;;;;;;;7.27;56.12;100238.13;690308;28;22406;-72
2022/02/16 00:29:13;;;;;;;1055.82;985.25;;;;;;;7.30;56.34;100247.72;688451;28;69413;-72
2022/02/16 00:29:34;;;;;;;1060.38;989.63;;;;;;;7.30;56.25;100239.66;690243;28;46305;-72
2022/02/16 00:29:55;;;;;;;1062.93;991.97;;;;;;;7.30;56.34;100245.03;689899;28;22189;-72
2022/02/16 00:30:18;;;;;;;1059.97;989.22;;;;;;;7.29;56.11;100243.34;687545;28;24325;-71
2022/02/16 00:30:39;;;;;;;1060.57;989.78;;;;;;;7.31;56.08;100233.28;687687;28;69261;-70
2022/02/16 00:31:01;;;;;;;1057.97;987.38;;;;;;;7.28;56.02;100245.19;687909;28;18681;-71
2022/02/16 00:31:24;;;;;;;1059.00;988.38;;;;;;;7.33;56.18;100244.69;679777;28;69304;-72
2022/02/16 00:31:45;;;;;;;1060.28;989.47;;;;;;;7.31;56.09;100239.47;682242;28;45257;-73
2022/02/16 00:32:09;;;;;;;1059.07;988.45;;;;;;;7.30;56.23;100239.66;682662;28;46296;-72
2022/02/16 00:32:30;;;;;;;1058.10;987.47;;;;;;;7.30;56.15;100237.78;684269;28;67464;-73
2022/02/16 00:32:51;;;;;;;1057.50;986.95;;;;;;;7.31;55.98;100238.66;686712;28;23448;-72
2022/02/16 00:33:14;;;;;;;1060.35;989.65;;;;;;;7.31;55.96;100244.03;688943;28;44361;-73
2022/02/16 00:33:35;;;;;;;1060.78;989.97;;;;;;;7.32;56.07;100234.94;689336;28;45229;-72
2022/02/16 00:33:56;;;;;;;1058.93;988.17;;;;;;;7.34;56.17;100249.06;690763;28;23461;-72
2022/02/16 00:34:18;;;;;;;1060.25;989.50;;;;;;;7.34;55.82;100232.94;690694;28;23400;-72
2022/02/16 00:34:40;;;;;;;1059.72;989.00;;;;;;;7.33;56.18;100232.09;690162;28;44535;-72
2022/02/16 00:35:01;;;;;;;1058.70;988.05;;;;;;;7.33;55.84;100225.88;689958;28;46273;-72
2022/02/16 00:35:22;;;;;;;1060.45;989.65;;;;;;;7.33;55.91;100239.31;691049;28;22402;-73
2022/02/16 00:35:45;;;;;;;1060.90;990.05;;;;;;;7.31;56.05;100235.97;694307;28;859;-72
2022/02/16 00:36:07;;;;;;;1055.68;985.08;;;;;;;7.31;56.08;100238.66;688037;28;10214;-72
2022/02/16 00:36:28;;;;;;;1057.55;986.85;;;;;;;7.30;56.17;100223.53;684347;28;46400;-72
2022/02/16 00:36:50;;;;;;;1055.72;985.13;;;;;;;7.29;55.80;100236.13;685975;28;46341;-72
2022/02/16 00:37:12;;;;;;;1052.28;981.88;;;;;;;7.30;56.10;100242.34;683623;28;22442;-72
2022/02/16 00:37:34;;;;;;;1057.25;986.65;;;;;;;7.30;56.00;100239.66;682726;28;44371;-72
2022/02/16 00:37:56;;;;;;;1062.05;991.25;;;;;;;7.31;56.05;100228.75;683831;28;45357;-73
2022/02/16 00:38:17;;;;;;;1057.72;987.08;;;;;;;7.33;55.94;100228.56;689625;28;46405;-71
2022/02/16 00:38:41;;;;;;;1054.35;983.85;;;;;;;7.33;55.65;100223.19;687238;28;69650;-72
2022/02/16 00:39:02;;;;;;;1061.82;991.03;;;;;;;7.30;55.73;100224.38;688503;28;44389;-72
2022/02/16 00:39:23;;;;;;;1059.25;988.60;;;;;;;7.27;55.91;100229.25;689298;28;23140;-72
2022/02/16 00:39:44;;;;;;;1060.87;990.17;;;;;;;7.26;55.89;100238.31;689369;28;22452;-72
2022/02/16 00:40:08;;;;;;;1055.90;985.40;;;;;;;7.27;55.95;100237.31;690216;28;45276;-72
2022/02/16 00:40:29;;;;;;;1056.63;986.03;;;;;;;7.28;55.85;100234.44;690444;28;67452;-72
2022/02/16 00:40:50;;;;;;;1053.50;983.10;;;;;;;7.28;56.02;100226.38;693329;28;23357;-73
2022/02/16 00:41:11;;;;;;;1054.93;984.33;;;;;;;7.28;56.08;100239.00;690085;28;22429;-72
2022/02/16 00:41:35;;;;;;;1063.07;992.08;;;;;;;7.28;56.21;100237.13;691138;28;4678;-72
2022/02/16 00:41:56;;;;;;;1059.70;988.90;;;;;;;7.29;55.86;100229.91;690004;28;46280;-73
2022/02/16 00:42:18;;;;;;;1058.78;988.03;;;;;;;7.29;55.99;100240.66;690382;28;46288;-72
2022/02/16 00:42:39;;;;;;;1057.63;986.97;;;;;;;7.29;56.03;100227.22;691011;28;23401;-73
2022/02/16 00:43:01;;;;;;;1055.63;985.10;;;;;;;7.27;56.03;100226.56;688072;28;21528;-72
2022/02/16 00:43:23;;;;;;;1058.75;988.15;;;;;;;7.26;56.00;100227.56;688583;28;67468;-73
2022/02/16 00:43:44;;;;;;;1057.78;987.15;;;;;;;7.25;56.09;100236.63;690610;28;22343;-72
2022/02/16 00:44:05;;;;;;;1059.00;988.28;;;;;;;7.25;56.29;100225.91;687739;28;23459;-72
2022/02/16 00:44:28;;;;;;;1059.80;989.10;;;;;;;7.24;56.36;100225.06;687813;28;46229;-72
2022/02/16 00:44:49;;;;;;;1058.68;987.97;;;;;;;7.27;56.35;100231.94;687817;28;46390;-72
2022/02/16 00:45:10;;;;;;;1060.20;989.50;;;;;;;7.26;56.33;100232.94;688494;28;23426;-72
2022/02/16 00:45:32;;;;;;;1062.80;991.83;;;;;;;7.29;56.29;100224.53;688826;28;22152;-72
2022/02/16 00:45:54;;;;;;;1066.60;995.40;;;;;;;7.28;56.29;100222.88;688002;28;69313;-72
2022/02/16 00:46:16;;;;;;;1057.88;987.17;;;;;;;7.29;56.36;100229.91;687520;28;44355;-72
2022/02/16 00:46:37;;;;;;;1059.05;988.35;;;;;;;7.27;56.31;100215.81;686718;28;21482;-72
2022/02/16 00:46:58;;;;;;;1057.53;986.92;;;;;;;7.28;56.22;100239.00;686505;28;22389;-73
2022/02/16 00:47:20;;;;;;;1055.97;985.38;;;;;;;7.30;56.56;100228.91;684506;28;21372;-72
2022/02/16 00:47:41;;;;;;;1059.50;988.72;;;;;;;7.31;56.31;100235.97;684996;28;46639;-73
2022/02/16 00:48:03;;;;;;;1058.55;987.85;;;;;;;7.32;56.12;100240.31;685762;28;46223;-72
2022/02/16 00:48:29;;;;;;;1058.53;987.80;;;;;;;7.31;56.11;100252.91;683221;28;137887;-72
2022/02/16 00:48:51;;;;;;;1064.35;993.33;;;;;;;7.34;56.20;100235.63;686358;28;22422;-72
2022/02/16 00:49:12;;;;;;;1061.47;990.55;;;;;;;7.35;56.01;100240.84;686984;28;16369;-72
2022/02/16 00:49:34;;;;;;;1053.90;983.45;;;;;;;7.39;55.97;100234.09;686696;28;46292;-72
2022/02/16 00:49:55;;;;;;;1058.80;988.17;;;;;;;7.41;55.96;100236.63;689265;28;22192;-72
2022/02/16 00:50:17;;;;;;;1057.75;987.05;;;;;;;7.40;56.09;100224.22;686566;28;22467;-72
2022/02/16 00:50:39;;;;;;;1057.65;986.95;;;;;;;7.38;55.80;100221.69;687404;28;69305;-72
2022/02/16 00:51:01;;;;;;;1060.35;989.55;;;;;;;7.36;55.94;100217.50;688801;28;46105;-72
2022/02/16 00:51:24;;;;;;;1058.70;987.92;;;;;;;7.36;56.11;100225.56;690883;28;21254;-72
2022/02/16 00:51:46;;;;;;;1067.05;995.83;;;;;;;7.39;56.25;100230.59;687079;28;92264;-72
2022/02/16 00:52:07;;;;;;;1063.68;992.60;;;;;;;7.39;56.24;100226.03;689916;28;21299;-73
2022/02/16 00:52:29;;;;;;;1066.47;995.30;;;;;;;7.38;56.03;100228.91;686422;28;1499;-72
2022/02/16 00:52:51;;;;;;;1066.47;995.17;;;;;;;7.38;56.02;100219.00;685991;28;23466;-72
2022/02/16 00:53:12;;;;;;;1063.53;992.53;;;;;;;7.37;56.08;100220.00;686251;28;69418;-72
2022/02/16 00:53:34;;;;;;;1062.38;991.47;;;;;;;7.37;56.08;100217.31;688007;28;22417;-73
2022/02/16 00:53:55;;;;;;;1062.57;991.58;;;;;;;7.39;56.23;100252.91;684688;28;23554;-71
2022/02/16 00:54:23;;;;;;;1058.35;987.63;;;;;;;7.43;55.90;100215.81;680936;28;137710;-71
2022/02/16 00:54:44;;;;;;;1063.95;993.03;;;;;;;7.43;55.96;100231.06;684075;28;47132;-73
2022/02/16 00:55:10;;;;;;;1062.50;991.60;;;;;;;7.40;56.06;100221.53;681260;28;44327;-72
2022/02/16 00:55:31;;;;;;;1064.07;993.10;;;;;;;7.39;56.11;100214.47;682849;28;91971;-72
2022/02/16 00:55:52;;;;;;;1063.10;992.05;;;;;;;7.39;56.05;100223.34;683096;28;44432;-72
2022/02/16 00:56:15;;;;;;;1064.28;993.22;;;;;;;7.39;56.19;100217.97;686485;28;23192;-72
2022/02/16 00:56:36;;;;;;;1061.50;990.58;;;;;;;7.39;56.35;100222.53;661760;28;65571;-72
2022/02/16 00:57:01;;;;;;;1063.10;992.13;;;;;;;7.38;56.12;100216.31;686543;28;47251;-72
2022/02/16 00:57:24;;;;;;;1062.03;991.13;;;;;;;7.38;56.31;100237.81;684829;28;110160;-72
2022/02/16 00:57:45;;;;;;;1063.88;992.83;;;;;;;7.39;56.33;100220.66;684834;28;46384;-72
2022/02/16 00:58:07;;;;;;;1061.70;990.80;;;;;;;7.41;56.05;100231.25;680895;28;67496;-72
2022/02/16 00:58:29;;;;;;;1061.68;990.80;;;;;;;7.41;56.22;100223.19;683628;28;47605;-73
2022/02/16 00:58:50;;;;;;;1062.88;991.97;;;;;;;7.40;56.18;100214.31;684018;28;19808;-72
2022/02/16 00:59:15;;;;;;;1061.80;990.97;;;;;;;7.43;56.33;100217.66;680256;28;113524;-72
2022/02/16 00:59:43;;;;;;;1054.53;983.97;;;;;;;7.41;55.97;100207.06;681867;28;59999;-72
2022/02/16 01:00:05;;;;;;;1054.57;984.05;;;;;;;7.39;56.04;100204.56;679583;29;23459;-72
2022/02/16 01:00:34;;;;;;;1052.33;981.90;;;;;;;7.39;56.03;100209.09;676253;28;161023;-71
2022/02/16 01:00:56;;;;;;;1046.68;976.55;;;;;;;7.37;56.23;100222.69;683173;28;92099;-72
2022/02/16 01:01:18;;;;;;;1050.47;980.17;;;;;;;7.39;56.34;100203.72;680291;29;21535;-73
2022/02/16 01:01:39;;;;;;;1051.65;981.25;;;;;;;7.38;56.12;100197.53;683789;28;22237;-72
2022/02/16 01:02:01;;;;;;;1056.82;986.25;;;;;;;7.38;56.14;100210.09;685537;28;21516;-72
2022/02/16 01:02:22;;;;;;;1054.63;984.22;;;;;;;7.40;56.46;100216.16;683576;28;46389;-73
2022/02/16 01:02:43;;;;;;;1051.75;981.45;;;;;;;7.42;56.12;100208.75;682984;28;48008;-72
2022/02/16 01:03:05;;;;;;;1050.47;980.17;;;;;;;7.44;55.99;100211.28;683790;28;22361;-71
2022/02/16 01:03:27;;;;;;;1052.78;982.38;;;;;;;7.46;56.11;100198.50;680049;28;46855;-71
2022/02/16 01:03:48;;;;;;;1055.35;984.85;;;;;;;7.43;56.09;100199.69;680834;28;45244;-71
2022/02/16 01:04:09;;;;;;;1056.32;985.83;;;;;;;7.44;56.36;100204.03;679587;29;21210;-73
2022/02/16 01:04:30;;;;;;;1051.43;981.13;;;;;;;7.47;55.92;100209.06;683405;28;22398;-72
2022/02/16 01:04:52;;;;;;;1049.15;978.90;;;;;;;7.47;55.98;100216.31;685098;28;22361;-73
2022/02/16 01:05:16;;;;;;;1053.22;982.83;;;;;;;7.45;56.16;100207.59;682041;28;115484;-73
2022/02/16 01:05:38;;;;;;;1057.13;986.53;;;;;;;7.44;56.12;100206.72;681748;28;22462;-72
2022/02/16 01:06:00;;;;;;;1051.15;980.75;;;;;;;7.44;55.93;100211.28;679177;28;45053;-72
2022/02/16 01:06:23;;;;;;;1044.43;974.35;;;;;;;7.42;56.02;100197.19;680811;28;45225;-73
2022/02/16 01:06:45;;;;;;;1049.45;979.05;;;;;;;7.43;56.04;100206.91;677875;28;92244;-72
2022/02/16 01:07:06;;;;;;;1067.18;996.50;;;;;;;7.40;56.02;100194.66;677732;29;22363;-71
2022/02/16 01:07:28;;;;;;;921.20;865.42;;;;;;;7.38;56.23;100193.97;680948;28;22359;-72
2022/02/16 01:07:50;;;;;;;520.00;493.42;;;;;;;7.37;56.29;100195.00;676031;29;44141;-72
2022/02/16 01:08:12;;;;;;;435.67;413.92;;;;;;;7.36;56.23;100210.25;677262;29;44351;-72
2022/02/16 01:08:34;;;;;;;446.58;424.30;;;;;;;7.38;56.51;100218.16;680029;28;44488;-73
2022/02/16 01:08:56;;;;;;;430.13;408.73;;;;;;;7.39;56.42;100198.34;678347;29;67497;-72
2022/02/16 01:09:18;;;;;;;408.58;388.38;;;;;;;7.38;56.32;100202.88;680805;28;22391;-72
2022/02/16 01:09:43;;;;;;;377.95;359.42;;;;;;;7.37;56.63;100201.19;682022;28;69390;-72
2022/02/16 01:10:07;;;;;;;423.77;402.88;;;;;;;7.36;56.39;100206.75;680063;28;90326;-71
2022/02/16 01:10:28;;;;;;;417.08;396.35;;;;;;;7.38;56.33;100204.72;680627;28;92356;-72
2022/02/16 01:10:49;;;;;;;412.67;392.27;;;;;;;7.36;56.51;100204.88;682910;28;47164;-72
2022/02/16 01:11:17;;;;;;;495.92;470.98;;;;;;;7.39;56.72;100203.72;680980;28;92322;-72
2022/02/16 01:11:38;;;;;;;482.15;457.92;;;;;;;7.40;56.42;100206.25;681351;28;134727;-71
2022/02/16 01:12:01;;;;;;;481.73;457.58;;;;;;;7.43;56.52;100198.84;681882;28;69413;-72
2022/02/16 01:12:27;;;;;;;439.38;417.50;;;;;;;7.43;56.40;100209.59;680197;28;114569;-72
2022/02/16 01:12:51;;;;;;;393.38;374.02;;;;;;;7.41;56.54;100199.00;682427;28;38719;-73
2022/02/16 01:13:12;;;;;;;402.08;382.17;;;;;;;7.40;56.54;100195.50;682076;28;46336;-72
2022/02/16 01:13:34;;;;;;;404.73;384.73;;;;;;;7.39;56.50;100195.66;683434;28;46480;-72
2022/02/16 01:13:56;;;;;;;364.05;346.15;;;;;;;7.39;56.73;100195.66;683199;28;23363;-72
2022/02/16 01:14:18;;;;;;;321.65;305.90;;;;;;;7.39;56.70;100191.13;682990;28;45266;-72
2022/02/16 01:14:57;;;;;;;350.95;333.83;;;;;;;7.42;56.65;100205.25;679887;28;137843;-72
2022/02/16 01:15:20;;;;;;;320.27;304.60;;;;;;;7.41;56.80;100196.31;686587;28;23834;-72
2022/02/16 01:15:41;;;;;;;334.88;318.55;;;;;;;7.43;56.75;100177.34;684800;28;44364;-70
2022/02/16 01:16:02;;;;;;;292.13;277.87;;;;;;;7.44;56.87;100195.16;685672;28;33017;-73
2022/02/16 01:16:23;;;;;;;266.90;253.80;;;;;;;7.44;56.62;100195.16;682884;28;13553;-72
2022/02/16 01:16:49;;;;;;;250.82;238.52;;;;;;;7.44;56.60;100197.84;679704;28;115392;-72
2022/02/16 01:17:30;;;;;;;267.42;254.38;;;;;;;7.43;56.47;100197.00;675444;28;137466;-73
2022/02/16 01:17:57;;;;;;;268.60;255.52;;;;;;;7.43;56.58;100210.44;681288;28;136446;-71
2022/02/16 01:18:23;;;;;;;294.98;280.58;;;;;;;7.44;56.35;100198.66;683334;28;87753;-71
2022/02/16 01:18:50;;;;;;;281.35;267.55;;;;;;;7.41;56.62;100196.31;679973;28;136407;-72
2022/02/16 01:19:12;;;;;;;286.95;272.90;;;;;;;7.42;56.68;100192.63;679640;29;67604;-72
2022/02/16 01:19:34;;;;;;;304.63;289.75;;;;;;;7.40;56.57;100195.50;681633;28;1620;-72
2022/02/16 01:19:58;;;;;;;307.80;292.73;;;;;;;7.43;56.59;100190.78;679759;29;46403;-73
2022/02/16 01:20:22;;;;;;;347.15;330.10;;;;;;;7.40;56.75;100189.28;676995;29;114952;-72
2022/02/16 01:20:51;;;;;;;354.75;337.30;;;;;;;7.40;56.89;100191.97;676135;28;160896;-71
2022/02/16 01:21:13;;;;;;;332.65;316.38;;;;;;;7.38;56.94;100192.16;677712;29;45235;-72
2022/02/16 01:21:37;;;;;;;315.25;299.83;;;;;;;7.42;57.07;100186.44;676638;28;89301;-72
2022/02/16 01:22:02;;;;;;;334.75;318.40;;;;;;;7.43;56.84;100183.56;679097;28;114964;-72
2022/02/16 01:22:23;;;;;;;343.80;327.00;;;;;;;7.43;56.73;100194.31;680316;28;58592;-72
2022/02/16 01:22:46;;;;;;;332.77;316.58;;;;;;;7.43;57.01;100183.56;680465;29;46366;-72
2022/02/16 01:23:10;;;;;;;336.58;320.20;;;;;;;7.45;56.92;100189.59;679563;28;114949;-71
2022/02/16 01:23:33;;;;;;;364.02;346.27;;;;;;;7.45;57.18;100184.25;682643;28;69412;-71
2022/02/16 01:23:55;;;;;;;346.17;329.23;;;;;;;7.44;57.09;100181.72;684341;28;22395;-69
2022/02/16 01:24:17;;;;;;;311.40;296.15;;;;;;;7.40;57.35;100194.66;681445;28;47229;-72
2022/02/16 01:24:38;;;;;;;288.63;274.50;;;;;;;7.44;57.26;100222.84;683614;28;23438;-72
2022/02/16 01:25:01;;;;;;;326.75;310.83;;;;;;;7.47;57.13;100194.81;680428;28;93061;-71
2022/02/16 01:25:23;;;;;;;330.80;314.70;;;;;;;7.45;57.13;100183.41;683358;28;21197;-72
2022/02/16 01:25:45;;;;;;;328.80;312.65;;;;;;;7.46;57.25;100195.81;681251;28;54138;-72
2022/02/16 01:26:19;;;;;;;324.38;308.58;;;;;;;7.46;57.36;100199.34;680620;28;160662;-72
2022/02/16 01:26:50;;;;;;;303.25;288.42;;;;;;;7.46;57.29;100182.38;681670;28;137604;-71
2022/02/16 01:27:12;;;;;;;334.13;317.88;;;;;;;7.47;57.33;100203.72;681334;28;92178;-72
2022/02/16 01:27:33;;;;;;;371.88;353.75;;;;;;;7.46;57.42;100188.63;680821;28;23981;-72
2022/02/16 01:27:55;;;;;;;379.88;361.35;;;;;;;7.45;57.35;100196.84;683388;28;22445;-72
2022/02/16 01:28:21;;;;;;;337.38;320.95;;;;;;;7.45;57.62;100189.59;680753;28;114933;-72
2022/02/16 01:28:43;;;;;;;372.30;354.00;;;;;;;7.47;57.57;100198.34;681278;28;69213;-71
2022/02/16 01:29:04;;;;;;;431.38;409.95;;;;;;;7.46;57.54;100202.03;683192;28;46332;-72
2022/02/16 01:29:35;;;;;;;408.90;388.63;;;;;;;7.49;57.54;100172.16;680003;28;137993;-71
2022/02/16 01:30:12;;;;;;;546.28;518.53;;;;;;;7.43;57.69;100182.72;678414;28;137763;-71
2022/02/16 01:30:46;;;;;;;547.83;519.85;;;;;;;7.45;57.97;100189.59;674980;29;160246;-71
2022/02/16 01:31:11;;;;;;;568.17;538.92;;;;;;;7.43;58.03;100190.78;679056;28;138085;-71
2022/02/16 01:31:37;;;;;;;628.33;595.10;;;;;;;7.40;57.98;100198.19;680843;28;133819;-72
2022/02/16 01:31:58;;;;;;;647.38;613.03;;;;;;;7.42;57.99;100184.56;682706;28;22383;-72
2022/02/16 01:32:22;;;;;;;604.05;572.67;;;;;;;7.38;58.33;100189.47;681613;28;69376;-72
2022/02/16 01:32:43;;;;;;;609.65;577.85;;;;;;;7.42;58.15;100181.06;681794;28;46431;-72
2022/02/16 01:33:06;;;;;;;604.38;573.05;;;;;;;7.42;58.28;100189.94;678261;29;69304;-72
2022/02/16 01:33:37;;;;;;;521.70;495.25;;;;;;;7.41;58.06;100182.88;675411;28;160393;-72
2022/02/16 01:33:58;;;;;;;543.05;515.35;;;;;;;7.39;58.13;100180.38;681015;28;45286;-72
2022/02/16 01:34:20;;;;;;;602.05;570.65;;;;;;;7.38;58.33;100180.53;682522;28;46375;-71
2022/02/16 01:34:41;;;;;;;572.47;543.05;;;;;;;7.35;58.54;100171.00;682693;28;44354;-71
2022/02/16 01:35:04;;;;;;;593.40;562.90;;;;;;;7.33;58.61;100173.00;685398;28;23633;-71
2022/02/16 01:35:25;;;;;;;555.30;527.05;;;;;;;7.32;58.89;100171.34;682527;28;69262;-71
2022/02/16 01:35:46;;;;;;;498.17;473.05;;;;;;;7.32;58.92;100178.53;680590;29;23390;-72
2022/02/16 01:36:08;;;;;;;554.10;525.63;;;;;;;7.34;59.18;100180.03;680914;28;23430;-71
2022/02/16 01:36:31;;;;;;;607.25;575.63;;;;;;;7.33;59.12;100175.69;679709;28;69438;-71
2022/02/16 01:36:53;;;;;;;543.38;515.47;;;;;;;7.31;58.99;100191.13;681907;28;46470;-71
2022/02/16 01:37:15;;;;;;;476.80;452.80;;;;;;;7.33;59.17;100188.28;683453;28;44345;-72
2022/02/16 01:37:36;;;;;;;480.23;456.02;;;;;;;7.33;59.11;100173.00;683158;28;23520;-72
2022/02/16 01:37:58;;;;;;;526.92;500.20;;;;;;;7.31;59.35;100183.06;682307;28;22366;-71
2022/02/16 01:38:19;;;;;;;504.23;478.80;;;;;;;7.31;59.45;100168.81;681109;28;67442;-71
2022/02/16 01:38:51;;;;;;;514.40;488.40;;;;;;;7.30;59.67;100177.88;677868;28;136058;-71
2022/02/16 01:39:18;;;;;;;478.65;454.63;;;;;;;7.30;59.67;100189.44;678114;28;138916;-70
2022/02/16 01:39:40;;;;;;;488.35;463.85;;;;;;;7.31;59.47;100166.13;681869;28;68906;-71
2022/02/16 01:40:02;;;;;;;545.80;517.80;;;;;;;7.27;59.49;100167.47;683851;28;20954;-71
2022/02/16 01:40:25;;;;;;;597.75;566.65;;;;;;;7.25;59.50;100161.44;678801;29;90430;-70
2022/02/16 01:40:51;;;;;;;511.65;485.77;;;;;;;7.24;59.84;100165.13;677004;29;115202;-71
2022/02/16 01:41:14;;;;;;;529.75;502.77;;;;;;;7.22;59.97;100178.72;680310;29;44260;-71
2022/02/16 01:41:38;;;;;;;513.60;487.55;;;;;;;7.27;59.86;100180.91;675926;28;134739;-71
2022/02/16 01:42:07;;;;;;;504.60;479.02;;;;;;;7.25;59.80;100156.06;673385;29;138388;-71
2022/02/16 01:42:30;;;;;;;552.03;523.58;;;;;;;7.21;59.91;100164.44;681003;28;18383;-72